This is the latest recevied weather packets stored in our database for station/object KA9CBS. If no packets are shown the sender has not sent any weather packets the latest 10 day(s).
| Time | Temp. | Humidity | Pressure | Rain* | Wind** | Luminosity | Snow |
|---|---|---|---|---|---|---|---|
| 1778183209 | 17.78° C | 38% | 1017.4 hPa | 0 mm | - | 696 W/m² | - |
| 1778182905 | 17.78° C | 38% | 1017.2 hPa | 0 mm | - | 728 W/m² | - |
| 1778182602 | 17.22° C | 45% | 1017.3 hPa | 0 mm | - | 757 W/m² | - |
| 1778182299 | 18.33° C | 40% | 1017.3 hPa | 0 mm | - | 767 W/m² | - |
| 1778181995 | 17.78° C | 40% | 1017.4 hPa | 0 mm | - | 756 W/m² | - |
| 1778181692 | 17.78° C | 41% | 1017.4 hPa | 0 mm | - | 753 W/m² | - |
| 1778181387 | 17.78° C | 46% | 1017.6 hPa | 0 mm | - | 725 W/m² | - |
| 1778181085 | 16.67° C | 46% | 1017.6 hPa | 0 mm | - | 727 W/m² | - |
| 1778180782 | 18.33° C | 41% | 1017.8 hPa | 0 mm | - | 383 W/m² | - |
| 1778180481 | 18.33° C | 36% | 1017.7 hPa | 0 mm | - | 762 W/m² | - |
| 1778180179 | 18.33° C | 40% | 1017.6 hPa | 0 mm | - | 807 W/m² | - |
| 1778179875 | 17.78° C | 37% | 1017.8 hPa | 0 mm | - | 748 W/m² | - |
| 1778179573 | 17.22° C | 43% | 1017.8 hPa | 0 mm | - | 733 W/m² | - |
| 1778179271 | 17.78° C | 36% | 1017.9 hPa | 0 mm | - | 757 W/m² | - |
| 1778178967 | 17.22° C | 39% | 1018 hPa | 0 mm | - | 764 W/m² | - |
| 1778178664 | 16.67° C | 44% | 1017.8 hPa | 0 mm | - | 757 W/m² | - |
| 1778178360 | 16.67° C | 40% | 1017.8 hPa | 0 mm | - | 762 W/m² | - |
| 1778178056 | 16.67° C | 41% | 1017.9 hPa | 0 mm | - | 771 W/m² | - |
| 1778177753 | 16.67° C | 35% | 1017.9 hPa | 0 mm | - | 773 W/m² | - |
| 1778177449 | 16.11° C | 37% | 1017.9 hPa | 0 mm | - | 766 W/m² | - |
| 1778177146 | 16.11° C | 41% | 1017.9 hPa | 0 mm | - | 748 W/m² | - |
| 1778176843 | 16.11° C | 43% | 1018 hPa | 0 mm | - | 765 W/m² | - |
| 1778176539 | 16.67° C | 43% | 1018.2 hPa | 0 mm | - | 789 W/m² | - |
| 1778176237 | 16.11° C | 43% | 1018.2 hPa | 0 mm | - | 786 W/m² | - |
| 1778175933 | 16.11° C | 40% | 1018.2 hPa | 0 mm | - | 778 W/m² | - |
* Rain latest hour (hover to see other rain measurements)
** Current wind speed in m/s (hover to see current wind gust speed)